sensor_id;sensor_type;location;lat;lon;timestamp;pressure;altitude;pressure_sealevel;temperature;humidity
13836;BME280;6988;52.614;13.500;2023-07-22T00:00:50;54151.25;;;-143.77;81.60
13836;BME280;6988;52.614;13.500;2023-07-22T00:05:42;54143.06;;;-143.77;80.95
13836;BME280;6988;52.614;13.500;2023-07-22T00:10:34;54138.94;;;-143.77;80.82
13836;BME280;6988;52.614;13.500;2023-07-22T00:15:27;54116.38;;;-143.77;81.08
13836;BME280;6988;52.614;13.500;2023-07-22T00:20:20;54171.78;;;-143.77;81.32
13836;BME280;6988;52.614;13.500;2023-07-22T00:25:12;54157.41;;;-143.77;81.21
13836;BME280;6988;52.614;13.500;2023-07-22T00:30:06;54143.06;;;-143.77;81.31
13836;BME280;6988;52.614;13.500;2023-07-22T00:34:59;54159.47;;;-143.77;81.47
13836;BME280;6988;52.614;13.500;2023-07-22T00:39:52;54118.44;;;-143.77;81.62
13836;BME280;6988;52.614;13.500;2023-07-22T00:44:45;54138.94;;;-143.77;82.00
13836;BME280;6988;52.614;13.500;2023-07-22T00:49:37;54200.50;;;-143.77;82.33
13836;BME280;6988;52.614;13.500;2023-07-22T00:54:30;54143.06;;;-143.77;82.92
13836;BME280;6988;52.614;13.500;2023-07-22T00:59:24;54163.56;;;-143.77;83.31
13836;BME280;6988;52.614;13.500;2023-07-22T01:04:19;54159.47;;;-143.77;84.00
13836;BME280;6988;52.614;13.500;2023-07-22T01:09:14;54143.06;;;-143.77;84.28
13836;BME280;6988;52.614;13.500;2023-07-22T01:14:06;54147.16;;;-143.77;84.35
13836;BME280;6988;52.614;13.500;2023-07-22T01:19:00;54136.91;;;-143.77;84.64
13836;BME280;6988;52.614;13.500;2023-07-22T01:23:54;54143.06;;;-143.77;84.84
13836;BME280;6988;52.614;13.500;2023-07-22T01:28:46;54134.84;;;-143.77;84.98
13836;BME280;6988;52.614;13.500;2023-07-22T01:33:38;54126.63;;;-143.77;85.16
13836;BME280;6988;52.614;13.500;2023-07-22T01:38:30;54126.63;;;-143.77;85.40
13836;BME280;6988;52.614;13.500;2023-07-22T01:43:23;54136.91;;;-143.77;85.19
13836;BME280;6988;52.614;13.500;2023-07-22T01:48:16;54145.09;;;-143.77;85.36
13836;BME280;6988;52.614;13.500;2023-07-22T01:53:08;54138.94;;;-143.77;84.90
13836;BME280;6988;52.614;13.500;2023-07-22T01:58:01;54134.84;;;-143.77;84.27
13836;BME280;6988;52.614;13.500;2023-07-22T02:02:55;54163.56;;;-143.77;84.32
13836;BME280;6988;52.614;13.500;2023-07-22T02:07:48;54118.44;;;-143.77;84.09
13836;BME280;6988;52.614;13.500;2023-07-22T02:12:40;54126.63;;;-143.77;83.62
13836;BME280;6988;52.614;13.500;2023-07-22T02:17:32;54124.59;;;-143.77;83.48
13836;BME280;6988;52.614;13.500;2023-07-22T02:22:25;54159.47;;;-143.77;83.25
13836;BME280;6988;52.614;13.500;2023-07-22T02:27:17;54138.94;;;-143.77;83.42
13836;BME280;6988;52.614;13.500;2023-07-22T02:32:09;54110.22;;;-143.77;83.21
13836;BME280;6988;52.614;13.500;2023-07-22T02:37:08;54134.84;;;-143.77;83.13
13836;BME280;6988;52.614;13.500;2023-07-22T02:42:07;54126.63;;;-143.77;83.02
13836;BME280;6988;52.614;13.500;2023-07-22T02:47:00;54155.38;;;-143.77;83.05
13836;BME280;6988;52.614;13.500;2023-07-22T02:51:52;54130.75;;;-143.77;82.86
13836;BME280;6988;52.614;13.500;2023-07-22T02:56:45;54171.78;;;-143.77;82.86
13836;BME280;6988;52.614;13.500;2023-07-22T03:01:54;54159.47;;;-143.77;82.88
13836;BME280;6988;52.614;13.500;2023-07-22T03:07:04;54171.78;;;-143.77;83.01
13836;BME280;6988;52.614;13.500;2023-07-22T03:11:57;54171.78;;;-143.77;83.02
13836;BME280;6988;52.614;13.500;2023-07-22T03:16:49;54157.41;;;-143.77;83.22
13836;BME280;6988;52.614;13.500;2023-07-22T03:21:44;54132.78;;;-143.77;83.11
13836;BME280;6988;52.614;13.500;2023-07-22T03:26:36;54182.03;;;-143.77;83.49
13836;BME280;6988;52.614;13.500;2023-07-22T03:31:29;54173.81;;;-143.77;83.20
13836;BME280;6988;52.614;13.500;2023-07-22T03:36:24;54173.81;;;-143.77;83.45
13836;BME280;6988;52.614;13.500;2023-07-22T03:41:18;54153.31;;;-143.77;83.21
13836;BME280;6988;52.614;13.500;2023-07-22T03:46:11;54169.72;;;-143.77;83.19
13836;BME280;6988;52.614;13.500;2023-07-22T03:51:04;54190.25;;;-143.77;83.33
13836;BME280;6988;52.614;13.500;2023-07-22T03:55:58;54188.19;;;-143.77;83.46
13836;BME280;6988;52.614;13.500;2023-07-22T04:00:53;54216.91;;;-143.77;83.41
13836;BME280;6988;52.614;13.500;2023-07-22T04:05:53;54188.19;;;-143.77;83.36
13836;BME280;6988;52.614;13.500;2023-07-22T04:10:52;54210.75;;;-143.77;83.36
13836;BME280;6988;52.614;13.500;2023-07-22T04:27:27;54198.44;;;-143.77;83.13
13836;BME280;6988;52.614;13.500;2023-07-22T04:32:19;54190.25;;;-143.77;83.21
13836;BME280;6988;52.614;13.500;2023-07-22T04:37:11;54165.63;;;-143.77;83.58
13836;BME280;6988;52.614;13.500;2023-07-22T04:42:07;54167.66;;;-143.77;83.53
13836;BME280;6988;52.614;13.500;2023-07-22T04:47:00;54159.47;;;-143.77;83.64
13836;BME280;6988;52.614;13.500;2023-07-22T04:51:52;54175.88;;;-143.77;83.19
13836;BME280;6988;52.614;13.500;2023-07-22T04:56:44;54134.84;;;-143.77;83.07
13836;BME280;6988;52.614;13.500;2023-07-22T05:01:36;54134.84;;;-143.77;82.52
13836;BME280;6988;52.614;13.500;2023-07-22T05:06:29;54184.09;;;-143.77;81.44
13836;BME280;6988;52.614;13.500;2023-07-22T05:11:24;54145.09;;;-143.77;80.89
13836;BME280;6988;52.614;13.500;2023-07-22T05:16:16;54151.25;;;-143.77;80.43
13836;BME280;6988;52.614;13.500;2023-07-22T05:21:08;54143.06;;;-143.77;80.00
13836;BME280;6988;52.614;13.500;2023-07-22T05:26:04;54143.06;;;-143.77;80.32
13836;BME280;6988;52.614;13.500;2023-07-22T05:30:56;54138.94;;;-143.77;79.78
13836;BME280;6988;52.614;13.500;2023-07-22T05:35:50;54134.84;;;-143.77;79.49
13836;BME280;6988;52.614;13.500;2023-07-22T05:40:42;54134.84;;;-143.77;78.42
13836;BME280;6988;52.614;13.500;2023-07-22T05:45:37;54134.84;;;-143.77;78.76
13836;BME280;6988;52.614;13.500;2023-07-22T05:50:28;54079.44;;;-143.77;77.58
13836;BME280;6988;52.614;13.500;2023-07-22T05:55:20;54110.22;;;-143.77;77.09
13836;BME280;6988;52.614;13.500;2023-07-22T06:00:13;54099.97;;;-143.77;76.47
13836;BME280;6988;52.614;13.500;2023-07-22T06:05:08;54110.22;;;-143.77;76.45
13836;BME280;6988;52.614;13.500;2023-07-22T06:09:59;54097.91;;;-143.77;76.19
13836;BME280;6988;52.614;13.500;2023-07-22T06:14:51;54128.69;;;-143.77;76.63
13836;BME280;6988;52.614;13.500;2023-07-22T06:19:44;54083.56;;;-143.77;75.69
13836;BME280;6988;52.614;13.500;2023-07-22T06:24:37;54097.91;;;-143.77;75.21
13836;BME280;6988;52.614;13.500;2023-07-22T06:29:29;54118.44;;;-143.77;73.92
13836;BME280;6988;52.614;13.500;2023-07-22T06:34:21;54067.13;;;-143.77;73.51
13836;BME280;6988;52.614;13.500;2023-07-22T06:39:14;54060.97;;;-143.77;72.69
13836;BME280;6988;52.614;13.500;2023-07-22T06:44:07;53972.75;;;-143.77;71.77
13836;BME280;6988;52.614;13.500;2023-07-22T06:48:59;53956.34;;;-143.77;71.02
13836;BME280;6988;52.614;13.500;2023-07-22T06:53:51;54032.25;;;-143.77;70.22
13836;BME280;6988;52.614;13.500;2023-07-22T06:58:43;53843.50;;;-143.77;69.07
13836;BME280;6988;52.614;13.500;2023-07-22T07:03:36;53991.22;;;-143.77;67.98
13836;BME280;6988;52.614;13.500;2023-07-22T07:08:28;53978.91;;;-143.77;66.88
13836;BME280;6988;52.614;13.500;2023-07-22T07:13:21;53829.16;;;-143.77;66.12
13836;BME280;6988;52.614;13.500;2023-07-22T07:18:12;53790.16;;;-143.77;65.16
13836;BME280;6988;52.614;13.500;2023-07-22T07:23:06;53792.22;;;-143.77;62.49
13836;BME280;6988;52.614;13.500;2023-07-22T07:27:57;53804.53;;;-143.77;62.00
13836;BME280;6988;52.614;13.500;2023-07-22T07:32:49;53790.16;;;-143.77;61.68
13836;BME280;6988;52.614;13.500;2023-07-22T07:37:41;53771.69;;;-143.77;60.67
13836;BME280;6988;52.614;13.500;2023-07-22T07:42:34;53880.44;;;-143.77;59.71
13836;BME280;6988;52.614;13.500;2023-07-22T07:47:26;53921.47;;;-143.77;59.58
13836;BME280;6988;52.614;13.500;2023-07-22T07:52:18;53915.31;;;-143.77;59.42
13836;BME280;6988;52.614;13.500;2023-07-22T07:57:10;53788.13;;;-143.77;60.36
13836;BME280;6988;52.614;13.500;2023-07-22T08:02:03;53884.53;;;-143.77;58.86
13836;BME280;6988;52.614;13.500;2023-07-22T08:07:00;53708.09;;;-143.77;58.04
13836;BME280;6988;52.614;13.500;2023-07-22T08:11:51;53847.59;;;-143.77;56.98
13836;BME280;6988;52.614;13.500;2023-07-22T08:16:43;53890.69;;;-143.77;57.32
13836;BME280;6988;52.614;13.500;2023-07-22T08:21:37;53827.09;;;-143.77;57.72
13836;BME280;6988;52.614;13.500;2023-07-22T08:26:29;53714.25;;;-143.77;56.89
13836;BME280;6988;52.614;13.500;2023-07-22T08:31:21;53708.09;;;-143.77;56.15
13836;BME280;6988;52.614;13.500;2023-07-22T08:36:12;53859.91;;;-143.77;56.20
13836;BME280;6988;52.614;13.500;2023-07-22T08:41:06;53849.66;;;-143.77;55.30
13836;BME280;6988;52.614;13.500;2023-07-22T08:46:01;53849.66;;;-143.77;54.76
13836;BME280;6988;52.614;13.500;2023-07-22T08:50:59;53804.53;;;-143.77;55.12
13836;BME280;6988;52.614;13.500;2023-07-22T08:55:54;53679.38;;;-143.77;54.48
13836;BME280;6988;52.614;13.500;2023-07-22T09:00:48;53786.06;;;-143.77;54.81
13836;BME280;6988;52.614;13.500;2023-07-22T09:05:42;53781.97;;;-143.77;53.35
13836;BME280;6988;52.614;13.500;2023-07-22T09:10:37;53786.06;;;-143.77;52.15
13836;BME280;6988;52.614;13.500;2023-07-22T09:15:31;53798.38;;;-143.77;52.62
13836;BME280;6988;52.614;13.500;2023-07-22T09:20:27;53568.59;;;-143.77;53.08
13836;BME280;6988;52.614;13.500;2023-07-22T09:25:24;53708.09;;;-143.77;50.00
13836;BME280;6988;52.614;13.500;2023-07-22T09:30:26;53665.03;;;-143.77;48.99
13836;BME280;6988;52.614;13.500;2023-07-22T09:35:19;53683.50;;;-143.77;48.53
13836;BME280;6988;52.614;13.500;2023-07-22T09:40:18;53660.91;;;-143.77;47.92
13836;BME280;6988;52.614;13.500;2023-07-22T09:45:11;53453.72;;;-143.77;47.27
13836;BME280;6988;52.614;13.500;2023-07-22T09:50:03;53675.28;;;-143.77;46.54
13836;BME280;6988;52.614;13.500;2023-07-22T09:54:59;53689.63;;;-143.77;44.94
13836;BME280;6988;52.614;13.500;2023-07-22T09:59:53;53560.41;;;-143.77;46.35
13836;BME280;6988;52.614;13.500;2023-07-22T10:04:46;53498.84;;;-143.77;45.68
13836;BME280;6988;52.614;13.500;2023-07-22T10:09:41;53576.81;;;-143.77;45.76
13836;BME280;6988;52.614;13.500;2023-07-22T10:14:34;53708.09;;;-143.77;46.09
13836;BME280;6988;52.614;13.500;2023-07-22T10:19:28;53722.47;;;-143.77;44.72
13836;BME280;6988;52.614;13.500;2023-07-22T10:24:21;53693.75;;;-143.77;45.23
13836;BME280;6988;52.614;13.500;2023-07-22T10:29:14;53691.69;;;-143.77;45.49
13836;BME280;6988;52.614;13.500;2023-07-22T10:34:06;53566.56;;;-143.77;46.29
13836;BME280;6988;52.614;13.500;2023-07-22T10:38:59;53482.44;;;-143.77;44.84
13836;BME280;6988;52.614;13.500;2023-07-22T10:43:56;53404.50;;;-143.77;43.73
13836;BME280;6988;52.614;13.500;2023-07-22T10:48:48;53363.47;;;-143.77;41.81
13836;BME280;6988;52.614;13.500;2023-07-22T10:53:42;53330.63;;;-143.77;42.77
13836;BME280;6988;52.614;13.500;2023-07-22T10:58:59;53353.22;;;-143.77;40.17
13836;BME280;6988;52.614;13.500;2023-07-22T11:04:14;53322.44;;;-143.77;39.19
13836;BME280;6988;52.614;13.500;2023-07-22T11:09:06;53293.72;;;-143.77;38.74
13836;BME280;6988;52.614;13.500;2023-07-22T11:14:14;53283.47;;;-143.77;37.46
13836;BME280;6988;52.614;13.500;2023-07-22T11:19:06;53269.09;;;-143.77;37.69
13836;BME280;6988;52.614;13.500;2023-07-22T11:23:58;53252.69;;;-143.77;37.02
13836;BME280;6988;52.614;13.500;2023-07-22T11:28:50;53258.84;;;-143.77;36.73
13836;BME280;6988;52.614;13.500;2023-07-22T11:33:45;53480.38;;;-143.77;36.71
13836;BME280;6988;52.614;13.500;2023-07-22T11:38:38;53314.22;;;-143.77;36.93
13836;BME280;6988;52.614;13.500;2023-07-22T11:43:30;53439.38;;;-143.77;36.87
13836;BME280;6988;52.614;13.500;2023-07-22T11:48:22;53433.22;;;-143.77;37.79
13836;BME280;6988;52.614;13.500;2023-07-22T11:53:15;53289.63;;;-143.77;36.75
13836;BME280;6988;52.614;13.500;2023-07-22T11:58:07;53297.81;;;-143.77;37.00
13836;BME280;6988;52.614;13.500;2023-07-22T12:03:05;53269.09;;;-143.77;37.28
13836;BME280;6988;52.614;13.500;2023-07-22T12:07:57;53248.59;;;-143.77;37.08
13836;BME280;6988;52.614;13.500;2023-07-22T12:12:51;53338.84;;;-143.77;36.69
13836;BME280;6988;52.614;13.500;2023-07-22T12:17:46;53429.09;;;-143.77;37.53
13836;BME280;6988;52.614;13.500;2023-07-22T12:22:38;53244.50;;;-143.77;37.26
13836;BME280;6988;52.614;13.500;2023-07-22T12:27:29;53228.06;;;-143.77;36.54
13836;BME280;6988;52.614;13.500;2023-07-22T12:32:23;53398.34;;;-143.77;36.35
13836;BME280;6988;52.614;13.500;2023-07-22T12:37:15;53468.09;;;-143.77;36.90
13836;BME280;6988;52.614;13.500;2023-07-22T12:42:07;53324.50;;;-143.77;37.64
13836;BME280;6988;52.614;13.500;2023-07-22T12:46:59;53453.72;;;-143.77;36.91
13836;BME280;6988;52.614;13.500;2023-07-22T12:51:52;53517.31;;;-143.77;38.33
13836;BME280;6988;52.614;13.500;2023-07-22T12:56:44;53525.53;;;-143.77;39.24
13836;BME280;6988;52.614;13.500;2023-07-22T13:01:36;53525.53;;;-143.77;39.25
13836;BME280;6988;52.614;13.500;2023-07-22T13:06:31;53539.88;;;-143.77;38.79
13836;BME280;6988;52.614;13.500;2023-07-22T13:11:24;53543.97;;;-143.77;39.27
13836;BME280;6988;52.614;13.500;2023-07-22T13:16:16;53453.72;;;-143.77;39.08
13836;BME280;6988;52.614;13.500;2023-07-22T13:21:08;53353.22;;;-143.77;38.44
13836;BME280;6988;52.614;13.500;2023-07-22T13:26:03;53318.34;;;-143.77;38.28
13836;BME280;6988;52.614;13.500;2023-07-22T13:30:56;53340.91;;;-143.77;37.63
13836;BME280;6988;52.614;13.500;2023-07-22T13:35:48;53371.66;;;-143.77;36.71
13836;BME280;6988;52.614;13.500;2023-07-22T13:40:41;53355.25;;;-143.77;36.77
13836;BME280;6988;52.614;13.500;2023-07-22T13:45:33;53388.06;;;-143.77;37.30
13836;BME280;6988;52.614;13.500;2023-07-22T13:50:26;53548.09;;;-143.77;37.60
13836;BME280;6988;52.614;13.500;2023-07-22T13:55:18;53533.72;;;-143.77;37.85
13836;BME280;6988;52.614;13.500;2023-07-22T14:00:11;53548.09;;;-143.77;38.99
13836;BME280;6988;52.614;13.500;2023-07-22T14:05:05;53601.44;;;-143.77;38.89
13836;BME280;6988;52.614;13.500;2023-07-22T14:09:59;53605.53;;;-143.77;39.96
13836;BME280;6988;52.614;13.500;2023-07-22T14:14:51;53525.53;;;-143.77;40.19
13836;BME280;6988;52.614;13.500;2023-07-22T14:19:43;53470.13;;;-143.77;39.63
13836;BME280;6988;52.614;13.500;2023-07-22T14:24:34;53494.75;;;-143.77;39.54
13836;BME280;6988;52.614;13.500;2023-07-22T14:29:27;53521.41;;;-143.77;39.05
13836;BME280;6988;52.614;13.500;2023-07-22T14:34:19;53525.53;;;-143.77;38.87
13836;BME280;6988;52.614;13.500;2023-07-22T14:39:11;53541.94;;;-143.77;39.44
13836;BME280;6988;52.614;13.500;2023-07-22T14:44:03;53548.09;;;-143.77;39.41
13836;BME280;6988;52.614;13.500;2023-07-22T14:48:56;53576.81;;;-143.77;40.27
13836;BME280;6988;52.614;13.500;2023-07-22T14:53:48;53593.22;;;-143.77;39.92
13836;BME280;6988;52.614;13.500;2023-07-22T14:58:40;53587.06;;;-143.77;39.91
13836;BME280;6988;52.614;13.500;2023-07-22T15:03:32;53601.44;;;-143.77;40.88
13836;BME280;6988;52.614;13.500;2023-07-22T15:08:25;53585.00;;;-143.77;40.65
13836;BME280;6988;52.614;13.500;2023-07-22T15:13:17;53617.84;;;-143.77;40.96
13836;BME280;6988;52.614;13.500;2023-07-22T15:18:09;53642.47;;;-143.77;41.55
13836;BME280;6988;52.614;13.500;2023-07-22T15:23:01;53650.66;;;-143.77;41.96
13836;BME280;6988;52.614;13.500;2023-07-22T15:27:54;53601.44;;;-143.77;41.66
13836;BME280;6988;52.614;13.500;2023-07-22T15:32:46;53599.38;;;-143.77;41.42
13836;BME280;6988;52.614;13.500;2023-07-22T15:37:38;53560.41;;;-143.77;41.60
13836;BME280;6988;52.614;13.500;2023-07-22T15:42:30;53570.66;;;-143.77;42.04
13836;BME280;6988;52.614;13.500;2023-07-22T15:47:23;53574.75;;;-143.77;41.34
13836;BME280;6988;52.614;13.500;2023-07-22T15:52:14;53587.06;;;-143.77;40.50
13836;BME280;6988;52.614;13.500;2023-07-22T15:57:06;53546.03;;;-143.77;40.85
13836;BME280;6988;52.614;13.500;2023-07-22T16:01:58;53576.81;;;-143.77;41.12
13836;BME280;6988;52.614;13.500;2023-07-22T16:06:52;53587.06;;;-143.77;41.32
13836;BME280;6988;52.614;13.500;2023-07-22T16:11:44;53515.25;;;-143.77;41.41
13836;BME280;6988;52.614;13.500;2023-07-22T16:16:37;53513.22;;;-143.77;41.45
13836;BME280;6988;52.614;13.500;2023-07-22T16:21:29;53509.09;;;-143.77;40.76
13836;BME280;6988;52.614;13.500;2023-07-22T16:26:22;53562.44;;;-143.77;41.44
13836;BME280;6988;52.614;13.500;2023-07-22T16:31:13;53554.25;;;-143.77;41.20
13836;BME280;6988;52.614;13.500;2023-07-22T16:36:06;53611.69;;;-143.77;41.28
13836;BME280;6988;52.614;13.500;2023-07-22T16:40:57;53619.88;;;-143.77;41.57
13836;BME280;6988;52.614;13.500;2023-07-22T16:45:50;53582.97;;;-143.77;42.06
13836;BME280;6988;52.614;13.500;2023-07-22T16:50:42;53609.63;;;-143.77;41.39
13836;BME280;6988;52.614;13.500;2023-07-22T16:55:34;53605.53;;;-143.77;42.07
13836;BME280;6988;52.614;13.500;2023-07-22T17:00:26;53638.34;;;-143.77;42.49
13836;BME280;6988;52.614;13.500;2023-07-22T17:05:20;53621.94;;;-143.77;41.84
13836;BME280;6988;52.614;13.500;2023-07-22T17:10:12;53613.72;;;-143.77;42.23
13836;BME280;6988;52.614;13.500;2023-07-22T17:15:05;53693.75;;;-143.77;42.13
13836;BME280;6988;52.614;13.500;2023-07-22T17:19:57;53667.06;;;-143.77;42.78
13836;BME280;6988;52.614;13.500;2023-07-22T17:24:53;53654.75;;;-143.77;42.95
13836;BME280;6988;52.614;13.500;2023-07-22T17:29:45;53650.66;;;-143.77;42.63
13836;BME280;6988;52.614;13.500;2023-07-22T17:34:36;53644.50;;;-143.77;43.36
13836;BME280;6988;52.614;13.500;2023-07-22T17:39:29;53638.34;;;-143.77;43.71
13836;BME280;6988;52.614;13.500;2023-07-22T17:44:22;53644.50;;;-143.77;43.81
13836;BME280;6988;52.614;13.500;2023-07-22T17:49:14;53640.41;;;-143.77;44.29
13836;BME280;6988;52.614;13.500;2023-07-22T17:54:06;53671.19;;;-143.77;44.73
13836;BME280;6988;52.614;13.500;2023-07-22T17:58:57;53697.84;;;-143.77;45.27
13836;BME280;6988;52.614;13.500;2023-07-22T18:03:51;53691.69;;;-143.77;45.57
13836;BME280;6988;52.614;13.500;2023-07-22T18:08:42;53683.50;;;-143.77;45.96
13836;BME280;6988;52.614;13.500;2023-07-22T18:13:34;53689.63;;;-143.77;47.70
13836;BME280;6988;52.614;13.500;2023-07-22T18:18:27;53714.25;;;-143.77;48.40
13836;BME280;6988;52.614;13.500;2023-07-22T18:23:20;53716.31;;;-143.77;50.12
13836;BME280;6988;52.614;13.500;2023-07-22T18:28:12;53712.22;;;-143.77;50.52
13836;BME280;6988;52.614;13.500;2023-07-22T18:33:04;53757.34;;;-143.77;51.92
13836;BME280;6988;52.614;13.500;2023-07-22T18:37:55;53753.25;;;-143.77;51.90
13836;BME280;6988;52.614;13.500;2023-07-22T18:42:49;53724.50;;;-143.77;51.15
13836;BME280;6988;52.614;13.500;2023-07-22T18:47:40;53771.69;;;-143.77;51.79
13836;BME280;6988;52.614;13.500;2023-07-22T18:52:32;53757.34;;;-143.77;52.35
13836;BME280;6988;52.614;13.500;2023-07-22T18:57:24;53765.53;;;-143.77;52.64
13836;BME280;6988;52.614;13.500;2023-07-22T19:02:17;53747.09;;;-143.77;51.99
13836;BME280;6988;52.614;13.500;2023-07-22T19:07:09;53763.50;;;-143.77;51.27
13836;BME280;6988;52.614;13.500;2023-07-22T19:12:01;53792.22;;;-143.77;52.20
13836;BME280;6988;52.614;13.500;2023-07-22T19:16:55;53794.28;;;-143.77;52.41
13836;BME280;6988;52.614;13.500;2023-07-22T19:21:50;53827.09;;;-143.77;54.55
13836;BME280;6988;52.614;13.500;2023-07-22T19:26:42;53788.13;;;-143.77;54.15
13836;BME280;6988;52.614;13.500;2023-07-22T19:31:34;53818.88;;;-143.77;54.04
13836;BME280;6988;52.614;13.500;2023-07-22T19:36:26;53831.19;;;-143.77;54.47
13836;BME280;6988;52.614;13.500;2023-07-22T19:41:19;53855.81;;;-143.77;55.43
13836;BME280;6988;52.614;13.500;2023-07-22T19:46:13;53855.81;;;-143.77;55.85
13836;BME280;6988;52.614;13.500;2023-07-22T19:51:08;53851.72;;;-143.77;56.19
13836;BME280;6988;52.614;13.500;2023-07-22T19:56:03;53847.59;;;-143.77;56.83
13836;BME280;6988;52.614;13.500;2023-07-22T20:00:57;53847.59;;;-143.77;57.38
13836;BME280;6988;52.614;13.500;2023-07-22T20:05:50;53872.22;;;-143.77;58.16
13836;BME280;6988;52.614;13.500;2023-07-22T20:10:41;53859.91;;;-143.77;58.46
13836;BME280;6988;52.614;13.500;2023-07-22T20:15:33;53896.84;;;-143.77;58.87
13836;BME280;6988;52.614;13.500;2023-07-22T20:20:27;53898.91;;;-143.77;58.84
13836;BME280;6988;52.614;13.500;2023-07-22T20:25:19;53882.50;;;-143.77;58.99
13836;BME280;6988;52.614;13.500;2023-07-22T20:30:11;53884.53;;;-143.77;59.28
13836;BME280;6988;52.614;13.500;2023-07-22T20:35:03;53884.53;;;-143.77;59.34
13836;BME280;6988;52.614;13.500;2023-07-22T20:40:01;53890.69;;;-143.77;59.92
13836;BME280;6988;52.614;13.500;2023-07-22T20:44:53;53913.25;;;-143.77;59.78
13836;BME280;6988;52.614;13.500;2023-07-22T20:49:44;53905.06;;;-143.77;60.22
13836;BME280;6988;52.614;13.500;2023-07-22T20:54:36;53917.38;;;-143.77;60.52
13836;BME280;6988;52.614;13.500;2023-07-22T20:59:30;53896.84;;;-143.77;60.59
13836;BME280;6988;52.614;13.500;2023-07-22T21:04:21;53909.16;;;-143.77;60.70
13836;BME280;6988;52.614;13.500;2023-07-22T21:09:13;53991.22;;;-143.77;61.25
13836;BME280;6988;52.614;13.500;2023-07-22T21:14:05;53929.69;;;-143.77;61.64
13836;BME280;6988;52.614;13.500;2023-07-22T21:18:58;53964.56;;;-143.77;61.59
13836;BME280;6988;52.614;13.500;2023-07-22T21:23:50;53948.13;;;-143.77;61.56
13836;BME280;6988;52.614;13.500;2023-07-22T21:28:42;53913.25;;;-143.77;61.55
13836;BME280;6988;52.614;13.500;2023-07-22T21:33:34;53931.72;;;-143.77;61.69
13836;BME280;6988;52.614;13.500;2023-07-22T21:38:28;53935.84;;;-143.77;61.65
13836;BME280;6988;52.614;13.500;2023-07-22T21:43:20;53941.97;;;-143.77;62.04
13836;BME280;6988;52.614;13.500;2023-07-22T22:03:53;53939.94;;;-143.77;62.97
13836;BME280;6988;52.614;13.500;2023-07-22T22:08:45;53952.25;;;-143.77;63.09
13836;BME280;6988;52.614;13.500;2023-07-22T22:13:37;53978.91;;;-143.77;63.16
13836;BME280;6988;52.614;13.500;2023-07-22T22:18:29;53962.50;;;-143.77;63.35
13836;BME280;6988;52.614;13.500;2023-07-22T22:23:22;53944.03;;;-143.77;63.56
13836;BME280;6988;52.614;13.500;2023-07-22T22:28:14;53956.34;;;-143.77;63.60
13836;BME280;6988;52.614;13.500;2023-07-22T22:33:06;53923.53;;;-143.77;63.49
13836;BME280;6988;52.614;13.500;2023-07-22T22:37:58;53946.09;;;-143.77;63.29
13836;BME280;6988;52.614;13.500;2023-07-22T22:42:51;53956.34;;;-143.77;63.29
13836;BME280;6988;52.614;13.500;2023-07-22T22:47:44;53921.47;;;-143.77;63.43
13836;BME280;6988;52.614;13.500;2023-07-22T22:52:37;53970.72;;;-143.77;64.45
13836;BME280;6988;52.614;13.500;2023-07-22T22:57:30;53966.59;;;-143.77;64.57
13836;BME280;6988;52.614;13.500;2023-07-22T23:02:23;53933.78;;;-143.77;64.41
13836;BME280;6988;52.614;13.500;2023-07-22T23:07:15;53966.59;;;-143.77;64.30
13836;BME280;6988;52.614;13.500;2023-07-22T23:12:08;53978.91;;;-143.77;64.58
13836;BME280;6988;52.614;13.500;2023-07-22T23:16:59;53974.81;;;-143.77;64.36
13836;BME280;6988;52.614;13.500;2023-07-22T23:21:53;53985.06;;;-143.77;64.16
13836;BME280;6988;52.614;13.500;2023-07-22T23:26:45;53985.06;;;-143.77;64.38
13836;BME280;6988;52.614;13.500;2023-07-22T23:31:37;53976.88;;;-143.77;64.58
13836;BME280;6988;52.614;13.500;2023-07-22T23:36:29;54007.63;;;-143.77;64.57
13836;BME280;6988;52.614;13.500;2023-07-22T23:41:22;53968.66;;;-143.77;64.23
13836;BME280;6988;52.614;13.500;2023-07-22T23:46:13;53964.56;;;-143.77;63.63
13836;BME280;6988;52.614;13.500;2023-07-22T23:51:05;53983.00;;;-143.77;63.31
13836;BME280;6988;52.614;13.500;2023-07-22T23:55:57;53974.81;;;-143.77;62.65
